sensor_id;sensor_type;location;lat;lon;timestamp;temperature;humidity
2997;DHT22;1508;48.744;9.110;2022-11-15T16:33:24;12.50;99.90
2997;DHT22;1508;48.744;9.110;2022-11-15T16:39:08;12.40;99.90
2997;DHT22;1508;48.744;9.110;2022-11-15T16:41:57;13.00;99.90
2997;DHT22;1508;48.744;9.110;2022-11-15T16:44:42;12.40;99.90
2997;DHT22;1508;48.744;9.110;2022-11-15T16:47:28;12.40;99.90
2997;DHT22;1508;48.744;9.110;2022-11-15T16:50:23;12.20;99.90
2997;DHT22;1508;48.744;9.110;2022-11-15T16:53:09;12.50;99.90
2997;DHT22;1508;48.744;9.110;2022-11-15T16:55:57;12.30;99.90
2997;DHT22;1508;48.744;9.110;2022-11-15T16:58:45;12.30;99.90
2997;DHT22;1508;48.744;9.110;2022-11-15T17:04:22;12.30;99.90
2997;DHT22;1508;48.744;9.110;2022-11-15T17:07:08;11.60;99.90
2997;DHT22;1508;48.744;9.110;2022-11-15T17:09:54;12.20;99.90
2997;DHT22;1508;48.744;9.110;2022-11-15T17:12:39;12.30;99.90
2997;DHT22;1508;48.744;9.110;2022-11-15T17:15:27;12.00;99.90
2997;DHT22;1508;48.744;9.110;2022-11-15T17:18:16;12.20;99.90
2997;DHT22;1508;48.744;9.110;2022-11-15T17:23:58;12.30;99.90
2997;DHT22;1508;48.744;9.110;2022-11-15T17:26:44;12.20;99.90
2997;DHT22;1508;48.744;9.110;2022-11-15T17:29:29;12.20;99.90
2997;DHT22;1508;48.744;9.110;2022-11-15T17:32:15;12.20;99.90
2997;DHT22;1508;48.744;9.110;2022-11-15T17:35:01;12.30;99.90
2997;DHT22;1508;48.744;9.110;2022-11-15T17:37:47;12.20;99.90
2997;DHT22;1508;48.744;9.110;2022-11-15T17:40:33;12.20;99.90
2997;DHT22;1508;48.744;9.110;2022-11-15T17:43:19;12.30;99.90
2997;DHT22;1508;48.744;9.110;2022-11-15T17:46:07;12.30;99.90
2997;DHT22;1508;48.744;9.110;2022-11-15T17:48:54;12.30;99.90
2997;DHT22;1508;48.744;9.110;2022-11-15T17:51:40;12.20;99.90
2997;DHT22;1508;48.744;9.110;2022-11-15T17:54:25;12.50;99.90
2997;DHT22;1508;48.744;9.110;2022-11-15T17:57:11;12.40;99.90
2997;DHT22;1508;48.744;9.110;2022-11-15T17:59:57;12.40;99.90
2997;DHT22;1508;48.744;9.110;2022-11-15T18:02:43;12.30;99.90
2997;DHT22;1508;48.744;9.110;2022-11-15T18:05:29;12.30;99.90
2997;DHT22;1508;48.744;9.110;2022-11-15T18:08:14;12.10;99.90
2997;DHT22;1508;48.744;9.110;2022-11-15T18:11:11;12.20;99.90
2997;DHT22;1508;48.744;9.110;2022-11-15T18:13:59;12.10;99.90
2997;DHT22;1508;48.744;9.110;2022-11-15T18:16:46;12.10;99.90
2997;DHT22;1508;48.744;9.110;2022-11-15T18:19:31;12.10;99.90
2997;DHT22;1508;48.744;9.110;2022-11-15T18:22:17;12.20;99.90
2997;DHT22;1508;48.744;9.110;2022-11-15T18:25:04;12.20;99.90
2997;DHT22;1508;48.744;9.110;2022-11-15T18:27:50;12.20;99.90
2997;DHT22;1508;48.744;9.110;2022-11-15T18:30:37;12.30;99.90
2997;DHT22;1508;48.744;9.110;2022-11-15T18:33:23;12.30;99.90
2997;DHT22;1508;48.744;9.110;2022-11-15T18:36:12;12.40;99.90
2997;DHT22;1508;48.744;9.110;2022-11-15T18:39:00;12.30;99.90
2997;DHT22;1508;48.744;9.110;2022-11-15T18:41:49;12.40;99.90
2997;DHT22;1508;48.744;9.110;2022-11-15T18:44:37;12.40;99.90
2997;DHT22;1508;48.744;9.110;2022-11-15T18:47:23;12.40;99.90
2997;DHT22;1508;48.744;9.110;2022-11-15T18:50:09;12.40;99.90
2997;DHT22;1508;48.744;9.110;2022-11-15T18:52:55;12.30;99.90
2997;DHT22;1508;48.744;9.110;2022-11-15T18:55:41;12.30;99.90
2997;DHT22;1508;48.744;9.110;2022-11-15T18:58:35;12.40;99.90
2997;DHT22;1508;48.744;9.110;2022-11-15T19:01:32;12.50;99.90
2997;DHT22;1508;48.744;9.110;2022-11-15T19:04:19;12.40;99.90
2997;DHT22;1508;48.744;9.110;2022-11-15T19:07:05;12.50;99.90
2997;DHT22;1508;48.744;9.110;2022-11-15T19:09:51;12.50;99.90
2997;DHT22;1508;48.744;9.110;2022-11-15T19:12:37;12.60;99.90
2997;DHT22;1508;48.744;9.110;2022-11-15T19:15:22;12.60;99.90
2997;DHT22;1508;48.744;9.110;2022-11-15T19:18:08;12.60;99.90
2997;DHT22;1508;48.744;9.110;2022-11-15T19:20:54;12.60;99.90
2997;DHT22;1508;48.744;9.110;2022-11-15T19:23:41;12.60;99.90
2997;DHT22;1508;48.744;9.110;2022-11-15T19:26:28;12.50;99.90
2997;DHT22;1508;48.744;9.110;2022-11-15T19:29:14;12.50;99.90
2997;DHT22;1508;48.744;9.110;2022-11-15T19:32:00;12.50;99.90
2997;DHT22;1508;48.744;9.110;2022-11-15T19:34:46;12.50;99.90
2997;DHT22;1508;48.744;9.110;2022-11-15T19:37:33;12.40;99.90
2997;DHT22;1508;48.744;9.110;2022-11-15T19:40:19;12.30;99.90
2997;DHT22;1508;48.744;9.110;2022-11-15T19:43:05;12.10;99.90
2997;DHT22;1508;48.744;9.110;2022-11-15T19:45:52;12.10;99.90
2997;DHT22;1508;48.744;9.110;2022-11-15T19:48:38;12.20;99.90
2997;DHT22;1508;48.744;9.110;2022-11-15T19:51:26;12.00;99.90
2997;DHT22;1508;48.744;9.110;2022-11-15T19:54:12;12.10;99.90
2997;DHT22;1508;48.744;9.110;2022-11-15T19:56:58;12.10;99.90
2997;DHT22;1508;48.744;9.110;2022-11-15T19:59:44;12.00;99.90
2997;DHT22;1508;48.744;9.110;2022-11-15T20:02:30;12.10;99.90
2997;DHT22;1508;48.744;9.110;2022-11-15T20:05:16;11.90;99.90
2997;DHT22;1508;48.744;9.110;2022-11-15T20:08:02;12.30;99.90
2997;DHT22;1508;48.744;9.110;2022-11-15T20:10:47;12.10;99.90
2997;DHT22;1508;48.744;9.110;2022-11-15T20:13:33;12.10;99.90
2997;DHT22;1508;48.744;9.110;2022-11-15T20:16:21;12.10;99.90
2997;DHT22;1508;48.744;9.110;2022-11-15T20:19:07;12.10;99.90
2997;DHT22;1508;48.744;9.110;2022-11-15T20:21:53;12.10;99.90
2997;DHT22;1508;48.744;9.110;2022-11-15T20:24:39;12.10;99.90
2997;DHT22;1508;48.744;9.110;2022-11-15T20:27:25;12.00;99.90
2997;DHT22;1508;48.744;9.110;2022-11-15T20:30:11;12.00;99.90
2997;DHT22;1508;48.744;9.110;2022-11-15T20:32:57;12.00;99.90
2997;DHT22;1508;48.744;9.110;2022-11-15T20:35:42;12.00;99.90
2997;DHT22;1508;48.744;9.110;2022-11-15T20:38:28;12.00;99.90
2997;DHT22;1508;48.744;9.110;2022-11-15T20:41:14;11.90;99.90
2997;DHT22;1508;48.744;9.110;2022-11-15T20:44:00;11.90;99.90
2997;DHT22;1508;48.744;9.110;2022-11-15T20:46:46;11.80;99.90
2997;DHT22;1508;48.744;9.110;2022-11-15T20:49:32;11.90;99.90
2997;DHT22;1508;48.744;9.110;2022-11-15T20:52:18;11.90;99.90
2997;DHT22;1508;48.744;9.110;2022-11-15T20:55:05;11.40;99.90
2997;DHT22;1508;48.744;9.110;2022-11-15T20:57:51;11.80;99.90
2997;DHT22;1508;48.744;9.110;2022-11-15T21:00:37;11.80;99.90
2997;DHT22;1508;48.744;9.110;2022-11-15T21:03:23;11.80;99.90
2997;DHT22;1508;48.744;9.110;2022-11-15T21:06:10;11.90;99.90
2997;DHT22;1508;48.744;9.110;2022-11-15T21:08:56;11.90;99.90
2997;DHT22;1508;48.744;9.110;2022-11-15T21:11:41;12.00;99.90
2997;DHT22;1508;48.744;9.110;2022-11-15T21:14:27;12.00;99.90
2997;DHT22;1508;48.744;9.110;2022-11-15T21:17:16;12.00;99.90
2997;DHT22;1508;48.744;9.110;2022-11-15T21:20:02;11.90;99.90
2997;DHT22;1508;48.744;9.110;2022-11-15T21:22:48;11.90;99.90
2997;DHT22;1508;48.744;9.110;2022-11-15T21:25:33;11.90;99.90
2997;DHT22;1508;48.744;9.110;2022-11-15T21:28:22;11.90;99.90
2997;DHT22;1508;48.744;9.110;2022-11-15T21:31:08;11.90;99.90
2997;DHT22;1508;48.744;9.110;2022-11-15T21:33:54;11.90;99.90
2997;DHT22;1508;48.744;9.110;2022-11-15T21:36:40;11.90;99.90
2997;DHT22;1508;48.744;9.110;2022-11-15T21:39:26;11.90;99.90
2997;DHT22;1508;48.744;9.110;2022-11-15T21:42:11;11.80;99.90
2997;DHT22;1508;48.744;9.110;2022-11-15T21:44:57;11.90;99.90
2997;DHT22;1508;48.744;9.110;2022-11-15T21:47:43;11.90;99.90
2997;DHT22;1508;48.744;9.110;2022-11-15T21:50:29;11.90;99.90
2997;DHT22;1508;48.744;9.110;2022-11-15T21:53:15;11.90;99.90
2997;DHT22;1508;48.744;9.110;2022-11-15T21:56:09;11.90;99.90
2997;DHT22;1508;48.744;9.110;2022-11-15T21:58:56;11.90;99.90
2997;DHT22;1508;48.744;9.110;2022-11-15T22:01:41;11.90;99.90
2997;DHT22;1508;48.744;9.110;2022-11-15T22:04:27;12.00;99.90
2997;DHT22;1508;48.744;9.110;2022-11-15T22:07:13;11.90;99.90
2997;DHT22;1508;48.744;9.110;2022-11-15T22:09:59;11.90;99.90
2997;DHT22;1508;48.744;9.110;2022-11-15T22:12:45;11.90;99.90
2997;DHT22;1508;48.744;9.110;2022-11-15T22:15:30;11.80;99.90
2997;DHT22;1508;48.744;9.110;2022-11-15T22:18:16;11.90;99.90
2997;DHT22;1508;48.744;9.110;2022-11-15T22:21:08;11.80;99.90
2997;DHT22;1508;48.744;9.110;2022-11-15T22:23:54;11.90;99.90
2997;DHT22;1508;48.744;9.110;2022-11-15T22:26:40;11.90;99.90
2997;DHT22;1508;48.744;9.110;2022-11-15T22:29:26;11.80;99.90
2997;DHT22;1508;48.744;9.110;2022-11-15T22:32:12;11.80;99.90
2997;DHT22;1508;48.744;9.110;2022-11-15T22:34:58;11.90;99.90
2997;DHT22;1508;48.744;9.110;2022-11-15T22:37:43;11.80;99.90
2997;DHT22;1508;48.744;9.110;2022-11-15T22:40:29;11.90;99.90
2997;DHT22;1508;48.744;9.110;2022-11-15T22:43:17;11.90;99.90
2997;DHT22;1508;48.744;9.110;2022-11-15T22:46:04;11.80;99.90
2997;DHT22;1508;48.744;9.110;2022-11-15T22:48:50;11.80;99.90
2997;DHT22;1508;48.744;9.110;2022-11-15T22:51:36;11.70;99.90
2997;DHT22;1508;48.744;9.110;2022-11-15T22:54:22;11.70;99.90
2997;DHT22;1508;48.744;9.110;2022-11-15T22:57:08;11.60;99.90
2997;DHT22;1508;48.744;9.110;2022-11-15T22:59:53;11.60;99.90
2997;DHT22;1508;48.744;9.110;2022-11-15T23:02:39;11.60;99.90
2997;DHT22;1508;48.744;9.110;2022-11-15T23:05:25;11.60;99.90
2997;DHT22;1508;48.744;9.110;2022-11-15T23:08:12;11.60;99.90
2997;DHT22;1508;48.744;9.110;2022-11-15T23:10:59;11.60;99.90
2997;DHT22;1508;48.744;9.110;2022-11-15T23:13:45;11.70;99.90
2997;DHT22;1508;48.744;9.110;2022-11-15T23:16:31;11.50;99.90
2997;DHT22;1508;48.744;9.110;2022-11-15T23:19:17;11.50;99.90
2997;DHT22;1508;48.744;9.110;2022-11-15T23:22:03;11.50;99.90
2997;DHT22;1508;48.744;9.110;2022-11-15T23:24:49;11.50;99.90
2997;DHT22;1508;48.744;9.110;2022-11-15T23:27:35;11.50;99.90
2997;DHT22;1508;48.744;9.110;2022-11-15T23:30:21;11.40;99.90
2997;DHT22;1508;48.744;9.110;2022-11-15T23:33:14;11.40;99.90
2997;DHT22;1508;48.744;9.110;2022-11-15T23:36:00;11.40;99.90
2997;DHT22;1508;48.744;9.110;2022-11-15T23:38:46;11.40;99.90
2997;DHT22;1508;48.744;9.110;2022-11-15T23:41:32;11.40;99.90
2997;DHT22;1508;48.744;9.110;2022-11-15T23:44:18;11.40;99.90
2997;DHT22;1508;48.744;9.110;2022-11-15T23:47:03;11.30;99.90
2997;DHT22;1508;48.744;9.110;2022-11-15T23:49:49;11.30;99.90
2997;DHT22;1508;48.744;9.110;2022-11-15T23:52:35;11.30;99.90
2997;DHT22;1508;48.744;9.110;2022-11-15T23:55:21;11.30;99.90
2997;DHT22;1508;48.744;9.110;2022-11-15T23:58:07;11.30;99.90
